Sinsinawa, WI

4:07 PM CDT on September 25, 2016 (GMT -0500)
Eagle Valley | | Change Station
Active Advisory: Flood Warning

Elev 837 ft 42.54 °N, 90.66 °W | Updated 2 minutes ago

Partly Cloudy
Partly Cloudy
75.2 °F
Feels Like 76 °F
N
7.0
Wind Variable Wind from East
Gusts 7.0 mph

Today
High -- | Low -- °F
--% Chance of Precip.
Yesterday
High -- | Low -- °F
Precip. -- in
Pressure 29.92 in
Visibility 10.0 miles
Clouds Few 2100 ft
Heat Index 76 °F
Dew Point 67 °F
Humidity 76%
Rainfall 0.00 in
Snow Depth Not available.
6:53 AM 6:53 PM
Waning Crescent, 25% visible
METAR KDBQ 252053Z 24011G18KT 10SM FEW021 23/19 A2993 RMK AO2 SLP130 T02330189 56013
Pressure 29.92 in
Visibility 10.0 miles
Clouds Few 2100 ft
Heat Index 76 °F
Dew Point 67 °F
Humidity 76%
Rainfall 0.00 in
Snow Depth Not available.
6:53 AM 6:53 PM
Waning Crescent, 25% visible
METAR KDBQ 252053Z 24011G18KT 10SM FEW021 23/19 A2993 RMK AO2 SLP130 T02330189 56013

10-Day Weather Forecast

Almanac

Astronomy

Sep. 25, 2016 Rise Set
Actual Time
Civil Twilight
Nautical Twilight
Astronomical Twilight
Moon
Length of Visible Light
Length of Day
Tomorrow will be .
, % of the Moon is Illuminated

Today's Extremes

State Highs State Lows

Community

WunderPhotos

Upload Photos

1,941,731 photos uploaded!

WunderBlog® & News

Nearby

Air Quality

  Air Quality AQ Index Pollutant
Not available.

Snow Depth

Station Depth Elevation

Earthquake Activity

City Distance Mag. Time & Date
Minimum magnitude displayed is 2.5.

Coastal Water Temperatures

Place Temperature

Stations

Nearby Weather Stations

Station Location Temp. Windchill Dew Point Humidity Wind Precip. Elev Updated Type
                   

Watches & Warnings

Flood Warning
Issued: 9:58 AM CDT Sep. 25, 2016 – National Weather Service

The Flood Warning continues for
the Mississippi River at Guttenberg dam 10.
* From Tuesday morning to Sunday October 02... or until the warning is
cancelled.
* At 9:00 am Sunday the stage was 14.0 feet.
* Flood stage is 15.0 feet.
* Minor flooding is forecast.
* Forecast... rise above flood stage by Tuesday morning and continue
to rise to near 15.5 feet by Wednesday evening. The river will fall
below flood stage by Saturday morning.
* Impact... at 15.5 feet... the water is over Marina Road.


Lat... Lon 4300 9111 4270 9090 4265 9090 4271 9112 4298 9119


Aegerter



958 am CDT sun Sep 25 2016

The Flood Warning continues for
the Mississippi River at McGregor.
* From Monday afternoon until further notice... or until the warning
is cancelled.
* At 9:15 am Sunday the stage was 15.0 feet.
* Flood stage is 16.0 feet.
* Minor flooding is forecast.
* Forecast... rise above flood stage by Monday and continue to rise to
near 17.3 feet by Thursday morning.
* Impact... at 17.0 feet... minor lowland flooding begins, and access to
Parks near the river in Prairie Du Chien is affected.


Lat... Lon 4321 9109 4300 9111 4298 9119 4316 9121 4324 9115